sensor_id;sensor_type;location;lat;lon;timestamp;P1;durP1;ratioP1;P2;durP2;ratioP2
51614;SDS011;37695;52.960;6.188;2023-12-04T00:01:18;14.38;;;7.25;;
51614;SDS011;37695;52.960;6.188;2023-12-04T00:03:44;14.93;;;7.35;;
51614;SDS011;37695;52.960;6.188;2023-12-04T00:06:10;15.63;;;7.28;;
51614;SDS011;37695;52.960;6.188;2023-12-04T00:08:36;15.43;;;7.07;;
51614;SDS011;37695;52.960;6.188;2023-12-04T00:11:03;14.07;;;7.03;;
51614;SDS011;37695;52.960;6.188;2023-12-04T00:13:32;15.85;;;7.88;;
51614;SDS011;37695;52.960;6.188;2023-12-04T00:15:58;14.07;;;7.05;;
51614;SDS011;37695;52.960;6.188;2023-12-04T00:18:24;14.82;;;7.03;;
51614;SDS011;37695;52.960;6.188;2023-12-04T00:20:49;14.50;;;6.63;;
51614;SDS011;37695;52.960;6.188;2023-12-04T00:23:15;14.18;;;7.18;;
51614;SDS011;37695;52.960;6.188;2023-12-04T00:25:40;15.60;;;7.72;;
51614;SDS011;37695;52.960;6.188;2023-12-04T00:28:06;16.77;;;8.00;;
51614;SDS011;37695;52.960;6.188;2023-12-04T00:30:32;14.73;;;7.65;;
51614;SDS011;37695;52.960;6.188;2023-12-04T00:32:57;14.70;;;7.32;;
51614;SDS011;37695;52.960;6.188;2023-12-04T00:35:23;13.02;;;7.30;;
51614;SDS011;37695;52.960;6.188;2023-12-04T00:37:49;13.00;;;6.95;;
51614;SDS011;37695;52.960;6.188;2023-12-04T00:40:15;14.15;;;7.07;;
51614;SDS011;37695;52.960;6.188;2023-12-04T00:42:41;13.65;;;6.60;;
51614;SDS011;37695;52.960;6.188;2023-12-04T00:45:07;13.15;;;5.97;;
51614;SDS011;37695;52.960;6.188;2023-12-04T00:47:34;15.07;;;7.57;;
51614;SDS011;37695;52.960;6.188;2023-12-04T00:50:00;13.70;;;6.88;;
51614;SDS011;37695;52.960;6.188;2023-12-04T00:52:26;13.55;;;7.30;;
51614;SDS011;37695;52.960;6.188;2023-12-04T00:54:51;14.63;;;6.85;;
51614;SDS011;37695;52.960;6.188;2023-12-04T00:57:17;16.30;;;7.38;;
51614;SDS011;37695;52.960;6.188;2023-12-04T00:59:43;14.85;;;7.30;;
51614;SDS011;37695;52.960;6.188;2023-12-04T01:02:08;14.07;;;6.50;;
51614;SDS011;37695;52.960;6.188;2023-12-04T01:04:34;14.00;;;7.22;;
51614;SDS011;37695;52.960;6.188;2023-12-04T01:07:00;12.18;;;6.15;;
51614;SDS011;37695;52.960;6.188;2023-12-04T01:09:26;15.10;;;6.68;;
51614;SDS011;37695;52.960;6.188;2023-12-04T01:11:52;13.15;;;6.60;;
51614;SDS011;37695;52.960;6.188;2023-12-04T01:14:19;14.43;;;6.78;;
51614;SDS011;37695;52.960;6.188;2023-12-04T01:16:45;14.88;;;6.85;;
51614;SDS011;37695;52.960;6.188;2023-12-04T01:19:11;15.20;;;7.07;;
51614;SDS011;37695;52.960;6.188;2023-12-04T01:21:37;14.43;;;7.35;;
51614;SDS011;37695;52.960;6.188;2023-12-04T01:24:03;16.05;;;7.32;;
51614;SDS011;37695;52.960;6.188;2023-12-04T01:26:29;15.93;;;7.97;;
51614;SDS011;37695;52.960;6.188;2023-12-04T01:28:55;14.05;;;6.90;;
51614;SDS011;37695;52.960;6.188;2023-12-04T01:31:21;13.63;;;6.97;;
51614;SDS011;37695;52.960;6.188;2023-12-04T01:33:47;15.95;;;7.93;;
51614;SDS011;37695;52.960;6.188;2023-12-04T01:36:12;14.93;;;7.72;;
51614;SDS011;37695;52.960;6.188;2023-12-04T01:38:38;15.40;;;7.43;;
51614;SDS011;37695;52.960;6.188;2023-12-04T01:41:04;14.48;;;7.22;;
51614;SDS011;37695;52.960;6.188;2023-12-04T01:43:30;14.00;;;6.80;;
51614;SDS011;37695;52.960;6.188;2023-12-04T01:45:56;14.88;;;7.03;;
51614;SDS011;37695;52.960;6.188;2023-12-04T01:48:24;12.80;;;5.78;;
51614;SDS011;37695;52.960;6.188;2023-12-04T01:50:51;15.38;;;7.07;;
51614;SDS011;37695;52.960;6.188;2023-12-04T01:53:17;15.20;;;7.45;;
51614;SDS011;37695;52.960;6.188;2023-12-04T01:55:43;17.30;;;7.45;;
51614;SDS011;37695;52.960;6.188;2023-12-04T01:58:08;16.05;;;7.50;;
51614;SDS011;37695;52.960;6.188;2023-12-04T02:00:35;16.40;;;7.72;;
51614;SDS011;37695;52.960;6.188;2023-12-04T02:03:01;17.13;;;7.70;;
51614;SDS011;37695;52.960;6.188;2023-12-04T02:05:27;15.98;;;7.72;;
51614;SDS011;37695;52.960;6.188;2023-12-04T02:07:54;15.02;;;7.25;;
51614;SDS011;37695;52.960;6.188;2023-12-04T02:10:23;17.52;;;8.20;;
51614;SDS011;37695;52.960;6.188;2023-12-04T02:12:49;15.73;;;7.53;;
51614;SDS011;37695;52.960;6.188;2023-12-04T02:15:15;16.70;;;7.07;;
51614;SDS011;37695;52.960;6.188;2023-12-04T02:17:42;16.63;;;7.50;;
51614;SDS011;37695;52.960;6.188;2023-12-04T02:20:09;16.00;;;6.57;;
51614;SDS011;37695;52.960;6.188;2023-12-04T02:22:37;14.98;;;7.30;;
51614;SDS011;37695;52.960;6.188;2023-12-04T02:25:03;15.90;;;7.47;;
51614;SDS011;37695;52.960;6.188;2023-12-04T02:30:32;15.10;;;7.18;;
51614;SDS011;37695;52.960;6.188;2023-12-04T02:33:03;13.27;;;6.50;;
51614;SDS011;37695;52.960;6.188;2023-12-04T02:35:31;15.20;;;7.18;;
51614;SDS011;37695;52.960;6.188;2023-12-04T02:37:59;16.95;;;7.63;;
51614;SDS011;37695;52.960;6.188;2023-12-04T02:40:26;16.10;;;7.47;;
51614;SDS011;37695;52.960;6.188;2023-12-04T02:42:52;17.58;;;7.68;;
51614;SDS011;37695;52.960;6.188;2023-12-04T02:45:18;14.45;;;7.13;;
51614;SDS011;37695;52.960;6.188;2023-12-04T02:47:44;15.63;;;7.28;;
51614;SDS011;37695;52.960;6.188;2023-12-04T02:50:09;15.13;;;6.95;;
51614;SDS011;37695;52.960;6.188;2023-12-04T02:52:35;14.43;;;6.68;;
51614;SDS011;37695;52.960;6.188;2023-12-04T02:55:01;18.38;;;7.88;;
51614;SDS011;37695;52.960;6.188;2023-12-04T02:57:27;14.02;;;6.70;;
51614;SDS011;37695;52.960;6.188;2023-12-04T02:59:53;15.10;;;7.32;;
51614;SDS011;37695;52.960;6.188;2023-12-04T03:02:18;18.02;;;7.65;;
51614;SDS011;37695;52.960;6.188;2023-12-04T03:04:45;17.80;;;7.22;;
51614;SDS011;37695;52.960;6.188;2023-12-04T03:07:11;15.30;;;6.78;;
51614;SDS011;37695;52.960;6.188;2023-12-04T03:09:37;16.35;;;6.70;;
51614;SDS011;37695;52.960;6.188;2023-12-04T03:12:03;15.90;;;7.03;;
51614;SDS011;37695;52.960;6.188;2023-12-04T03:14:29;15.20;;;7.13;;
51614;SDS011;37695;52.960;6.188;2023-12-04T03:16:54;14.73;;;6.88;;
51614;SDS011;37695;52.960;6.188;2023-12-04T03:19:20;14.30;;;6.85;;
51614;SDS011;37695;52.960;6.188;2023-12-04T03:21:46;15.10;;;6.60;;
51614;SDS011;37695;52.960;6.188;2023-12-04T03:24:12;14.38;;;6.70;;
51614;SDS011;37695;52.960;6.188;2023-12-04T03:26:37;16.08;;;7.82;;
51614;SDS011;37695;52.960;6.188;2023-12-04T03:29:03;16.13;;;6.53;;
51614;SDS011;37695;52.960;6.188;2023-12-04T03:31:29;16.42;;;6.43;;
51614;SDS011;37695;52.960;6.188;2023-12-04T03:33:56;16.48;;;6.82;;
51614;SDS011;37695;52.960;6.188;2023-12-04T03:36:22;15.43;;;7.00;;
51614;SDS011;37695;52.960;6.188;2023-12-04T03:38:47;15.80;;;6.40;;
51614;SDS011;37695;52.960;6.188;2023-12-04T03:41:16;16.25;;;7.22;;
51614;SDS011;37695;52.960;6.188;2023-12-04T03:43:42;12.52;;;6.38;;
51614;SDS011;37695;52.960;6.188;2023-12-04T03:46:08;15.82;;;6.50;;
51614;SDS011;37695;52.960;6.188;2023-12-04T03:48:34;14.68;;;6.47;;
51614;SDS011;37695;52.960;6.188;2023-12-04T03:51:00;13.77;;;5.63;;
51614;SDS011;37695;52.960;6.188;2023-12-04T03:53:26;14.55;;;6.32;;
51614;SDS011;37695;52.960;6.188;2023-12-04T03:55:52;15.23;;;6.55;;
51614;SDS011;37695;52.960;6.188;2023-12-04T03:58:17;15.63;;;6.53;;
51614;SDS011;37695;52.960;6.188;2023-12-04T04:00:43;15.80;;;6.32;;
51614;SDS011;37695;52.960;6.188;2023-12-04T04:03:09;15.20;;;6.55;;
51614;SDS011;37695;52.960;6.188;2023-12-04T04:05:35;13.77;;;5.78;;
51614;SDS011;37695;52.960;6.188;2023-12-04T04:08:01;16.00;;;6.18;;
51614;SDS011;37695;52.960;6.188;2023-12-04T04:10:27;13.98;;;6.07;;
51614;SDS011;37695;52.960;6.188;2023-12-04T04:12:53;14.02;;;6.82;;
51614;SDS011;37695;52.960;6.188;2023-12-04T04:15:19;14.43;;;6.35;;
51614;SDS011;37695;52.960;6.188;2023-12-04T04:17:45;14.68;;;6.07;;
51614;SDS011;37695;52.960;6.188;2023-12-04T04:20:11;15.18;;;5.65;;
51614;SDS011;37695;52.960;6.188;2023-12-04T04:22:37;13.27;;;6.25;;
51614;SDS011;37695;52.960;6.188;2023-12-04T04:25:05;12.18;;;6.10;;
51614;SDS011;37695;52.960;6.188;2023-12-04T04:27:32;14.07;;;6.30;;
51614;SDS011;37695;52.960;6.188;2023-12-04T04:29:58;12.75;;;6.30;;
51614;SDS011;37695;52.960;6.188;2023-12-04T04:32:24;13.57;;;6.85;;
51614;SDS011;37695;52.960;6.188;2023-12-04T04:34:50;13.02;;;5.57;;
51614;SDS011;37695;52.960;6.188;2023-12-04T04:37:15;13.75;;;6.07;;
51614;SDS011;37695;52.960;6.188;2023-12-04T04:39:41;13.70;;;5.70;;
51614;SDS011;37695;52.960;6.188;2023-12-04T04:42:07;13.45;;;6.50;;
51614;SDS011;37695;52.960;6.188;2023-12-04T04:44:33;13.70;;;6.25;;
51614;SDS011;37695;52.960;6.188;2023-12-04T04:46:59;14.38;;;5.50;;
51614;SDS011;37695;52.960;6.188;2023-12-04T04:49:24;14.55;;;5.85;;
51614;SDS011;37695;52.960;6.188;2023-12-04T04:51:50;13.88;;;6.05;;
51614;SDS011;37695;52.960;6.188;2023-12-04T04:54:16;13.27;;;5.85;;
51614;SDS011;37695;52.960;6.188;2023-12-04T04:56:42;14.23;;;6.15;;
51614;SDS011;37695;52.960;6.188;2023-12-04T04:59:07;13.32;;;5.93;;
51614;SDS011;37695;52.960;6.188;2023-12-04T05:01:33;13.13;;;5.57;;
51614;SDS011;37695;52.960;6.188;2023-12-04T05:03:58;12.05;;;5.60;;
51614;SDS011;37695;52.960;6.188;2023-12-04T05:06:24;12.00;;;5.95;;
51614;SDS011;37695;52.960;6.188;2023-12-04T05:08:50;15.00;;;5.65;;
51614;SDS011;37695;52.960;6.188;2023-12-04T05:11:17;11.13;;;5.22;;
51614;SDS011;37695;52.960;6.188;2023-12-04T05:13:44;12.10;;;5.53;;
51614;SDS011;37695;52.960;6.188;2023-12-04T05:16:10;13.23;;;5.80;;
51614;SDS011;37695;52.960;6.188;2023-12-04T05:18:36;14.73;;;6.15;;
51614;SDS011;37695;52.960;6.188;2023-12-04T05:21:03;13.10;;;5.88;;
51614;SDS011;37695;52.960;6.188;2023-12-04T05:23:33;14.18;;;5.90;;
51614;SDS011;37695;52.960;6.188;2023-12-04T05:25:59;13.15;;;5.53;;
51614;SDS011;37695;52.960;6.188;2023-12-04T05:28:25;14.82;;;5.57;;
51614;SDS011;37695;52.960;6.188;2023-12-04T05:30:51;13.73;;;6.15;;
51614;SDS011;37695;52.960;6.188;2023-12-04T05:33:17;14.80;;;5.50;;
51614;SDS011;37695;52.960;6.188;2023-12-04T05:35:42;11.75;;;4.75;;
51614;SDS011;37695;52.960;6.188;2023-12-04T05:38:08;13.02;;;5.35;;
51614;SDS011;37695;52.960;6.188;2023-12-04T05:40:34;12.48;;;6.00;;
51614;SDS011;37695;52.960;6.188;2023-12-04T05:43:00;14.48;;;6.05;;
51614;SDS011;37695;52.960;6.188;2023-12-04T05:45:26;14.25;;;6.40;;
51614;SDS011;37695;52.960;6.188;2023-12-04T05:47:52;13.40;;;6.13;;
51614;SDS011;37695;52.960;6.188;2023-12-04T05:50:18;12.40;;;5.47;;
51614;SDS011;37695;52.960;6.188;2023-12-04T05:52:43;12.82;;;5.40;;
51614;SDS011;37695;52.960;6.188;2023-12-04T05:55:09;15.52;;;6.05;;
51614;SDS011;37695;52.960;6.188;2023-12-04T05:57:35;12.23;;;5.72;;
51614;SDS011;37695;52.960;6.188;2023-12-04T06:00:03;12.40;;;5.18;;
51614;SDS011;37695;52.960;6.188;2023-12-04T06:02:30;13.43;;;5.20;;
51614;SDS011;37695;52.960;6.188;2023-12-04T06:04:57;12.98;;;5.63;;
51614;SDS011;37695;52.960;6.188;2023-12-04T06:07:23;12.43;;;4.95;;
51614;SDS011;37695;52.960;6.188;2023-12-04T06:09:48;12.93;;;5.72;;
51614;SDS011;37695;52.960;6.188;2023-12-04T06:12:14;14.13;;;7.43;;
51614;SDS011;37695;52.960;6.188;2023-12-04T06:14:40;10.98;;;5.13;;
51614;SDS011;37695;52.960;6.188;2023-12-04T06:17:05;13.02;;;5.32;;
51614;SDS011;37695;52.960;6.188;2023-12-04T06:19:31;11.85;;;4.68;;
51614;SDS011;37695;52.960;6.188;2023-12-04T06:21:57;11.57;;;5.00;;
51614;SDS011;37695;52.960;6.188;2023-12-04T06:24:23;10.80;;;5.05;;
51614;SDS011;37695;52.960;6.188;2023-12-04T06:26:49;11.20;;;4.95;;
51614;SDS011;37695;52.960;6.188;2023-12-04T06:29:16;10.55;;;4.80;;
51614;SDS011;37695;52.960;6.188;2023-12-04T06:31:42;10.50;;;4.97;;
51614;SDS011;37695;52.960;6.188;2023-12-04T06:34:08;13.55;;;5.32;;
51614;SDS011;37695;52.960;6.188;2023-12-04T06:36:37;13.82;;;5.70;;
51614;SDS011;37695;52.960;6.188;2023-12-04T06:39:05;11.80;;;4.75;;
51614;SDS011;37695;52.960;6.188;2023-12-04T06:41:34;11.50;;;5.45;;
51614;SDS011;37695;52.960;6.188;2023-12-04T06:44:00;10.80;;;4.75;;
51614;SDS011;37695;52.960;6.188;2023-12-04T06:46:26;12.95;;;5.05;;
51614;SDS011;37695;52.960;6.188;2023-12-04T06:48:54;12.48;;;5.05;;
51614;SDS011;37695;52.960;6.188;2023-12-04T06:51:22;10.77;;;4.95;;
51614;SDS011;37695;52.960;6.188;2023-12-04T06:53:48;11.00;;;5.00;;
51614;SDS011;37695;52.960;6.188;2023-12-04T06:56:14;9.75;;;4.53;;
51614;SDS011;37695;52.960;6.188;2023-12-04T06:58:40;12.57;;;5.38;;
51614;SDS011;37695;52.960;6.188;2023-12-04T07:01:06;10.45;;;4.57;;
51614;SDS011;37695;52.960;6.188;2023-12-04T07:03:31;11.00;;;4.95;;
51614;SDS011;37695;52.960;6.188;2023-12-04T07:05:57;10.10;;;4.43;;
51614;SDS011;37695;52.960;6.188;2023-12-04T07:08:23;12.23;;;5.05;;
51614;SDS011;37695;52.960;6.188;2023-12-04T07:10:49;10.25;;;4.65;;
51614;SDS011;37695;52.960;6.188;2023-12-04T07:13:16;9.32;;;4.22;;
51614;SDS011;37695;52.960;6.188;2023-12-04T07:15:41;10.30;;;4.60;;
51614;SDS011;37695;52.960;6.188;2023-12-04T07:18:07;10.60;;;4.72;;
51614;SDS011;37695;52.960;6.188;2023-12-04T07:20:33;10.75;;;4.43;;
51614;SDS011;37695;52.960;6.188;2023-12-04T07:22:59;10.88;;;4.57;;
51614;SDS011;37695;52.960;6.188;2023-12-04T07:25:25;11.43;;;4.70;;
51614;SDS011;37695;52.960;6.188;2023-12-04T07:27:51;9.90;;;4.53;;
51614;SDS011;37695;52.960;6.188;2023-12-04T07:30:17;9.82;;;4.25;;
51614;SDS011;37695;52.960;6.188;2023-12-04T07:32:43;8.43;;;3.85;;
51614;SDS011;37695;52.960;6.188;2023-12-04T07:35:08;8.63;;;4.03;;
51614;SDS011;37695;52.960;6.188;2023-12-04T07:37:34;11.95;;;3.85;;
51614;SDS011;37695;52.960;6.188;2023-12-04T07:39:59;9.73;;;4.30;;
51614;SDS011;37695;52.960;6.188;2023-12-04T07:42:26;11.13;;;4.13;;
51614;SDS011;37695;52.960;6.188;2023-12-04T07:44:51;8.75;;;4.20;;
51614;SDS011;37695;52.960;6.188;2023-12-04T07:47:17;9.60;;;4.18;;
51614;SDS011;37695;52.960;6.188;2023-12-04T07:49:44;10.15;;;4.22;;
51614;SDS011;37695;52.960;6.188;2023-12-04T07:52:10;7.60;;;3.80;;
51614;SDS011;37695;52.960;6.188;2023-12-04T07:54:36;9.15;;;4.22;;
51614;SDS011;37695;52.960;6.188;2023-12-04T07:57:02;8.90;;;3.90;;
51614;SDS011;37695;52.960;6.188;2023-12-04T07:59:28;8.05;;;3.72;;
51614;SDS011;37695;52.960;6.188;2023-12-04T08:01:54;8.40;;;3.47;;
51614;SDS011;37695;52.960;6.188;2023-12-04T08:04:20;9.98;;;4.43;;
51614;SDS011;37695;52.960;6.188;2023-12-04T08:06:46;8.23;;;3.72;;
51614;SDS011;37695;52.960;6.188;2023-12-04T08:09:12;9.77;;;4.18;;
51614;SDS011;37695;52.960;6.188;2023-12-04T08:11:38;9.25;;;3.55;;
51614;SDS011;37695;52.960;6.188;2023-12-04T08:14:05;8.93;;;3.83;;
51614;SDS011;37695;52.960;6.188;2023-12-04T08:16:31;7.20;;;3.75;;
51614;SDS011;37695;52.960;6.188;2023-12-04T08:18:57;7.47;;;3.35;;
51614;SDS011;37695;52.960;6.188;2023-12-04T08:21:22;6.72;;;2.92;;
51614;SDS011;37695;52.960;6.188;2023-12-04T08:23:48;7.40;;;3.35;;
51614;SDS011;37695;52.960;6.188;2023-12-04T08:26:14;6.97;;;2.90;;
51614;SDS011;37695;52.960;6.188;2023-12-04T08:28:47;7.85;;;3.78;;
51614;SDS011;37695;52.960;6.188;2023-12-04T08:31:13;6.60;;;3.30;;
51614;SDS011;37695;52.960;6.188;2023-12-04T08:33:39;8.63;;;3.28;;
51614;SDS011;37695;52.960;6.188;2023-12-04T08:36:05;7.65;;;3.38;;
51614;SDS011;37695;52.960;6.188;2023-12-04T08:38:31;7.97;;;2.90;;
51614;SDS011;37695;52.960;6.188;2023-12-04T08:40:57;6.20;;;2.83;;
51614;SDS011;37695;52.960;6.188;2023-12-04T08:43:23;6.68;;;3.17;;
51614;SDS011;37695;52.960;6.188;2023-12-04T08:45:49;6.40;;;2.60;;
51614;SDS011;37695;52.960;6.188;2023-12-04T08:48:14;7.72;;;2.95;;
51614;SDS011;37695;52.960;6.188;2023-12-04T08:50:40;7.80;;;3.13;;
51614;SDS011;37695;52.960;6.188;2023-12-04T08:53:05;7.03;;;2.88;;
51614;SDS011;37695;52.960;6.188;2023-12-04T08:55:31;7.45;;;3.17;;
51614;SDS011;37695;52.960;6.188;2023-12-04T08:57:57;6.53;;;2.53;;
51614;SDS011;37695;52.960;6.188;2023-12-04T09:00:23;6.57;;;2.70;;
51614;SDS011;37695;52.960;6.188;2023-12-04T09:02:49;5.55;;;2.38;;
51614;SDS011;37695;52.960;6.188;2023-12-04T09:05:14;5.97;;;2.30;;
51614;SDS011;37695;52.960;6.188;2023-12-04T09:07:40;6.10;;;2.65;;
51614;SDS011;37695;52.960;6.188;2023-12-04T09:10:06;5.43;;;2.70;;
51614;SDS011;37695;52.960;6.188;2023-12-04T09:12:32;6.60;;;2.50;;
51614;SDS011;37695;52.960;6.188;2023-12-04T09:15:00;6.90;;;2.50;;
51614;SDS011;37695;52.960;6.188;2023-12-04T09:17:26;5.25;;;2.42;;
51614;SDS011;37695;52.960;6.188;2023-12-04T09:19:53;7.32;;;2.83;;
51614;SDS011;37695;52.960;6.188;2023-12-04T09:22:18;6.55;;;2.70;;
51614;SDS011;37695;52.960;6.188;2023-12-04T09:24:44;6.30;;;3.10;;
51614;SDS011;37695;52.960;6.188;2023-12-04T09:27:10;7.18;;;2.70;;
51614;SDS011;37695;52.960;6.188;2023-12-04T09:29:36;5.70;;;2.67;;
51614;SDS011;37695;52.960;6.188;2023-12-04T09:32:02;6.90;;;2.65;;
51614;SDS011;37695;52.960;6.188;2023-12-04T09:34:28;6.00;;;2.25;;
51614;SDS011;37695;52.960;6.188;2023-12-04T09:36:54;6.20;;;2.63;;
51614;SDS011;37695;52.960;6.188;2023-12-04T09:39:19;5.35;;;2.38;;
51614;SDS011;37695;52.960;6.188;2023-12-04T09:41:45;6.63;;;2.72;;
51614;SDS011;37695;52.960;6.188;2023-12-04T09:44:11;7.95;;;2.70;;
51614;SDS011;37695;52.960;6.188;2023-12-04T09:46:37;5.43;;;2.38;;
51614;SDS011;37695;52.960;6.188;2023-12-04T09:49:04;6.53;;;3.00;;
51614;SDS011;37695;52.960;6.188;2023-12-04T09:51:30;6.82;;;3.13;;
51614;SDS011;37695;52.960;6.188;2023-12-04T09:53:57;5.97;;;2.58;;
51614;SDS011;37695;52.960;6.188;2023-12-04T09:56:27;4.80;;;2.30;;
51614;SDS011;37695;52.960;6.188;2023-12-04T09:58:57;6.40;;;2.20;;
51614;SDS011;37695;52.960;6.188;2023-12-04T10:01:29;5.93;;;2.75;;
51614;SDS011;37695;52.960;6.188;2023-12-04T10:03:56;8.40;;;2.20;;
51614;SDS011;37695;52.960;6.188;2023-12-04T10:06:23;6.53;;;3.03;;
51614;SDS011;37695;52.960;6.188;2023-12-04T10:08:53;6.80;;;2.88;;
51614;SDS011;37695;52.960;6.188;2023-12-04T10:11:20;6.05;;;3.08;;
51614;SDS011;37695;52.960;6.188;2023-12-04T10:13:46;5.25;;;2.60;;
51614;SDS011;37695;52.960;6.188;2023-12-04T10:16:12;5.78;;;2.65;;
51614;SDS011;37695;52.960;6.188;2023-12-04T10:18:38;5.75;;;2.95;;
51614;SDS011;37695;52.960;6.188;2023-12-04T10:21:03;6.72;;;2.40;;
51614;SDS011;37695;52.960;6.188;2023-12-04T10:23:39;6.03;;;2.55;;
51614;SDS011;37695;52.960;6.188;2023-12-04T10:26:06;6.00;;;2.65;;
51614;SDS011;37695;52.960;6.188;2023-12-04T10:28:32;6.10;;;2.70;;
51614;SDS011;37695;52.960;6.188;2023-12-04T10:30:59;5.35;;;2.45;;
51614;SDS011;37695;52.960;6.188;2023-12-04T10:33:25;6.68;;;3.03;;
51614;SDS011;37695;52.960;6.188;2023-12-04T10:35:52;5.50;;;2.40;;
51614;SDS011;37695;52.960;6.188;2023-12-04T10:38:18;6.07;;;2.88;;
51614;SDS011;37695;52.960;6.188;2023-12-04T10:40:44;5.55;;;2.45;;
51614;SDS011;37695;52.960;6.188;2023-12-04T10:43:10;6.53;;;2.78;;
51614;SDS011;37695;52.960;6.188;2023-12-04T10:45:50;5.10;;;2.65;;
51614;SDS011;37695;52.960;6.188;2023-12-04T10:48:17;6.13;;;2.72;;
51614;SDS011;37695;52.960;6.188;2023-12-04T10:50:44;6.15;;;2.78;;
51614;SDS011;37695;52.960;6.188;2023-12-04T10:53:12;6.53;;;3.13;;
51614;SDS011;37695;52.960;6.188;2023-12-04T10:55:39;5.95;;;2.80;;
51614;SDS011;37695;52.960;6.188;2023-12-04T10:58:06;6.20;;;2.70;;
51614;SDS011;37695;52.960;6.188;2023-12-04T11:00:34;8.75;;;3.45;;
51614;SDS011;37695;52.960;6.188;2023-12-04T11:03:04;6.85;;;3.03;;
51614;SDS011;37695;52.960;6.188;2023-12-04T11:05:38;8.02;;;3.38;;
51614;SDS011;37695;52.960;6.188;2023-12-04T11:08:15;6.90;;;3.10;;
51614;SDS011;37695;52.960;6.188;2023-12-04T11:11:03;6.82;;;2.72;;
51614;SDS011;37695;52.960;6.188;2023-12-04T11:13:32;6.53;;;3.25;;
51614;SDS011;37695;52.960;6.188;2023-12-04T11:16:07;7.53;;;3.13;;
51614;SDS011;37695;52.960;6.188;2023-12-04T11:18:41;6.07;;;2.75;;
51614;SDS011;37695;52.960;6.188;2023-12-04T11:21:09;6.43;;;2.75;;
51614;SDS011;37695;52.960;6.188;2023-12-04T11:23:36;6.80;;;2.97;;
51614;SDS011;37695;52.960;6.188;2023-12-04T11:26:03;6.15;;;2.78;;
51614;SDS011;37695;52.960;6.188;2023-12-04T11:28:30;6.78;;;2.63;;
51614;SDS011;37695;52.960;6.188;2023-12-04T11:30:57;6.85;;;2.78;;
51614;SDS011;37695;52.960;6.188;2023-12-04T11:33:26;6.22;;;2.50;;
51614;SDS011;37695;52.960;6.188;2023-12-04T11:35:51;7.43;;;2.72;;
51614;SDS011;37695;52.960;6.188;2023-12-04T11:38:17;5.88;;;2.42;;
51614;SDS011;37695;52.960;6.188;2023-12-04T11:40:43;5.97;;;2.67;;
51614;SDS011;37695;52.960;6.188;2023-12-04T11:43:21;6.20;;;2.60;;
51614;SDS011;37695;52.960;6.188;2023-12-04T11:45:50;6.15;;;2.83;;
51614;SDS011;37695;52.960;6.188;2023-12-04T11:48:16;6.05;;;3.10;;
51614;SDS011;37695;52.960;6.188;2023-12-04T11:50:45;5.47;;;2.78;;
51614;SDS011;37695;52.960;6.188;2023-12-04T11:53:11;6.07;;;2.83;;
51614;SDS011;37695;52.960;6.188;2023-12-04T11:55:39;6.13;;;2.90;;
51614;SDS011;37695;52.960;6.188;2023-12-04T11:58:09;7.40;;;3.15;;
51614;SDS011;37695;52.960;6.188;2023-12-04T12:00:36;7.30;;;3.50;;
51614;SDS011;37695;52.960;6.188;2023-12-04T12:03:06;7.78;;;3.15;;
51614;SDS011;37695;52.960;6.188;2023-12-04T12:08:01;7.22;;;2.80;;
51614;SDS011;37695;52.960;6.188;2023-12-04T12:10:28;6.38;;;2.40;;
51614;SDS011;37695;52.960;6.188;2023-12-04T12:12:54;6.85;;;3.25;;
51614;SDS011;37695;52.960;6.188;2023-12-04T12:15:21;7.78;;;3.30;;
51614;SDS011;37695;52.960;6.188;2023-12-04T12:17:47;6.97;;;3.10;;
51614;SDS011;37695;52.960;6.188;2023-12-04T12:20:14;6.65;;;3.10;;
51614;SDS011;37695;52.960;6.188;2023-12-04T12:22:40;6.78;;;3.08;;
51614;SDS011;37695;52.960;6.188;2023-12-04T12:25:08;6.05;;;2.97;;
51614;SDS011;37695;52.960;6.188;2023-12-04T12:27:36;6.60;;;2.40;;
51614;SDS011;37695;52.960;6.188;2023-12-04T12:30:02;8.13;;;3.00;;
51614;SDS011;37695;52.960;6.188;2023-12-04T12:32:30;6.40;;;2.80;;
51614;SDS011;37695;52.960;6.188;2023-12-04T12:34:57;6.60;;;2.88;;
51614;SDS011;37695;52.960;6.188;2023-12-04T12:37:23;6.25;;;3.30;;
51614;SDS011;37695;52.960;6.188;2023-12-04T12:39:49;6.85;;;2.53;;
51614;SDS011;37695;52.960;6.188;2023-12-04T12:42:25;4.47;;;2.50;;
51614;SDS011;37695;52.960;6.188;2023-12-04T12:44:51;6.05;;;2.53;;
51614;SDS011;37695;52.960;6.188;2023-12-04T12:47:17;5.85;;;2.72;;
51614;SDS011;37695;52.960;6.188;2023-12-04T12:49:44;6.05;;;2.63;;
51614;SDS011;37695;52.960;6.188;2023-12-04T12:52:09;6.55;;;2.58;;
51614;SDS011;37695;52.960;6.188;2023-12-04T12:54:36;5.63;;;2.67;;
51614;SDS011;37695;52.960;6.188;2023-12-04T12:57:02;7.05;;;2.95;;
51614;SDS011;37695;52.960;6.188;2023-12-04T12:59:29;5.63;;;2.38;;
51614;SDS011;37695;52.960;6.188;2023-12-04T13:01:54;6.60;;;2.72;;
51614;SDS011;37695;52.960;6.188;2023-12-04T13:04:21;5.60;;;2.50;;
51614;SDS011;37695;52.960;6.188;2023-12-04T13:06:47;5.65;;;3.00;;
51614;SDS011;37695;52.960;6.188;2023-12-04T13:09:14;5.57;;;2.60;;
51614;SDS011;37695;52.960;6.188;2023-12-04T13:11:45;6.30;;;2.90;;
51614;SDS011;37695;52.960;6.188;2023-12-04T13:14:11;5.65;;;2.75;;
51614;SDS011;37695;52.960;6.188;2023-12-04T13:16:37;7.65;;;2.55;;
51614;SDS011;37695;52.960;6.188;2023-12-04T13:19:03;6.32;;;2.58;;
51614;SDS011;37695;52.960;6.188;2023-12-04T13:21:28;6.15;;;2.97;;
51614;SDS011;37695;52.960;6.188;2023-12-04T13:23:56;7.18;;;2.78;;
51614;SDS011;37695;52.960;6.188;2023-12-04T13:26:22;6.13;;;2.80;;
51614;SDS011;37695;52.960;6.188;2023-12-04T13:28:47;5.07;;;2.67;;
51614;SDS011;37695;52.960;6.188;2023-12-04T13:31:13;6.28;;;2.83;;
51614;SDS011;37695;52.960;6.188;2023-12-04T13:33:40;5.45;;;2.92;;
51614;SDS011;37695;52.960;6.188;2023-12-04T13:36:08;5.95;;;2.40;;
51614;SDS011;37695;52.960;6.188;2023-12-04T13:38:34;5.88;;;2.50;;
51614;SDS011;37695;52.960;6.188;2023-12-04T13:41:00;6.50;;;2.40;;
51614;SDS011;37695;52.960;6.188;2023-12-04T13:43:44;6.32;;;2.72;;
51614;SDS011;37695;52.960;6.188;2023-12-04T13:48:41;5.57;;;2.70;;
51614;SDS011;37695;52.960;6.188;2023-12-04T13:51:08;5.45;;;2.47;;
51614;SDS011;37695;52.960;6.188;2023-12-04T13:53:35;7.13;;;3.05;;
51614;SDS011;37695;52.960;6.188;2023-12-04T13:56:04;6.15;;;3.03;;
51614;SDS011;37695;52.960;6.188;2023-12-04T13:58:36;5.95;;;2.88;;
51614;SDS011;37695;52.960;6.188;2023-12-04T14:01:10;5.40;;;2.78;;
51614;SDS011;37695;52.960;6.188;2023-12-04T14:03:41;6.57;;;2.90;;
51614;SDS011;37695;52.960;6.188;2023-12-04T14:06:08;5.95;;;2.85;;
51614;SDS011;37695;52.960;6.188;2023-12-04T14:08:34;6.65;;;2.97;;
51614;SDS011;37695;52.960;6.188;2023-12-04T14:11:01;7.50;;;2.88;;
51614;SDS011;37695;52.960;6.188;2023-12-04T14:13:31;5.70;;;2.60;;
51614;SDS011;37695;52.960;6.188;2023-12-04T14:15:57;7.43;;;3.03;;
51614;SDS011;37695;52.960;6.188;2023-12-04T14:18:23;6.72;;;3.10;;
51614;SDS011;37695;52.960;6.188;2023-12-04T14:20:49;5.97;;;2.70;;
51614;SDS011;37695;52.960;6.188;2023-12-04T14:23:14;5.75;;;2.92;;
51614;SDS011;37695;52.960;6.188;2023-12-04T14:25:41;7.28;;;3.30;;
51614;SDS011;37695;52.960;6.188;2023-12-04T14:28:06;6.20;;;2.97;;
51614;SDS011;37695;52.960;6.188;2023-12-04T14:30:32;8.48;;;3.00;;
51614;SDS011;37695;52.960;6.188;2023-12-04T14:32:58;6.07;;;2.72;;
51614;SDS011;37695;52.960;6.188;2023-12-04T14:35:24;6.82;;;3.15;;
51614;SDS011;37695;52.960;6.188;2023-12-04T14:37:49;7.32;;;2.67;;
51614;SDS011;37695;52.960;6.188;2023-12-04T14:40:15;6.63;;;3.08;;
51614;SDS011;37695;52.960;6.188;2023-12-04T14:42:43;6.25;;;3.00;;
51614;SDS011;37695;52.960;6.188;2023-12-04T14:45:08;6.05;;;2.95;;